sensor_id;sensor_type;location;lat;lon;timestamp;temperature;humidity
37874;DHT22;23709;48.078;11.684;2023-06-22T03:19:57;21.40;99.90
37874;DHT22;23709;48.078;11.684;2023-06-22T03:22:30;18.60;99.90
37874;DHT22;23709;48.078;11.684;2023-06-22T03:25:02;18.30;99.90
37874;DHT22;23709;48.078;11.684;2023-06-22T03:27:36;18.30;99.90
37874;DHT22;23709;48.078;11.684;2023-06-22T03:30:09;18.40;99.90
37874;DHT22;23709;48.078;11.684;2023-06-22T03:32:42;18.30;99.90
37874;DHT22;23709;48.078;11.684;2023-06-22T03:35:15;18.30;99.90
37874;DHT22;23709;48.078;11.684;2023-06-22T03:37:47;18.30;99.90
37874;DHT22;23709;48.078;11.684;2023-06-22T03:40:19;18.30;99.90
37874;DHT22;23709;48.078;11.684;2023-06-22T03:42:52;18.40;99.90
37874;DHT22;23709;48.078;11.684;2023-06-22T03:45:24;18.40;99.90
37874;DHT22;23709;48.078;11.684;2023-06-22T03:47:56;18.40;99.90
37874;DHT22;23709;48.078;11.684;2023-06-22T03:50:28;18.30;99.90
37874;DHT22;23709;48.078;11.684;2023-06-22T03:53:03;18.40;99.90
37874;DHT22;23709;48.078;11.684;2023-06-22T03:55:36;18.40;99.90
37874;DHT22;23709;48.078;11.684;2023-06-22T03:58:08;18.40;99.90
37874;DHT22;23709;48.078;11.684;2023-06-22T04:00:42;18.40;99.90
37874;DHT22;23709;48.078;11.684;2023-06-22T04:03:15;18.40;99.90
37874;DHT22;23709;48.078;11.684;2023-06-22T04:05:47;18.50;99.90
37874;DHT22;23709;48.078;11.684;2023-06-22T04:08:20;18.50;99.90
37874;DHT22;23709;48.078;11.684;2023-06-22T04:10:53;18.50;99.90
37874;DHT22;23709;48.078;11.684;2023-06-22T08:31:48;18.50;99.90
37874;DHT22;23709;48.078;11.684;2023-06-22T08:34:20;28.50;96.30
37874;DHT22;23709;48.078;11.684;2023-06-22T08:36:55;28.40;95.40
37874;DHT22;23709;48.078;11.684;2023-06-22T08:39:27;28.30;95.50
37874;DHT22;23709;48.078;11.684;2023-06-22T08:42:00;28.30;95.30
37874;DHT22;23709;48.078;11.684;2023-06-22T08:44:32;28.30;95.20
37874;DHT22;23709;48.078;11.684;2023-06-22T08:47:05;28.20;94.60
37874;DHT22;23709;48.078;11.684;2023-06-22T08:49:37;28.20;94.70
37874;DHT22;23709;48.078;11.684;2023-06-22T08:52:09;28.30;94.40
37874;DHT22;23709;48.078;11.684;2023-06-22T08:54:41;28.30;94.00
37874;DHT22;23709;48.078;11.684;2023-06-22T08:57:13;28.40;94.40
37874;DHT22;23709;48.078;11.684;2023-06-22T08:59:46;28.60;93.90
37874;DHT22;23709;48.078;11.684;2023-06-22T09:02:18;28.60;93.90
37874;DHT22;23709;48.078;11.684;2023-06-22T09:04:51;28.70;93.70
37874;DHT22;23709;48.078;11.684;2023-06-22T09:25:26;28.80;93.10
37874;DHT22;23709;48.078;11.684;2023-06-22T09:27:58;29.60;91.30
37874;DHT22;23709;48.078;11.684;2023-06-22T09:30:31;29.70;90.10
37874;DHT22;23709;48.078;11.684;2023-06-22T09:33:03;29.70;89.50
37874;DHT22;23709;48.078;11.684;2023-06-22T09:35:35;29.70;88.60
37874;DHT22;23709;48.078;11.684;2023-06-22T09:38:07;29.80;89.20
37874;DHT22;23709;48.078;11.684;2023-06-22T09:40:40;29.80;88.40
37874;DHT22;23709;48.078;11.684;2023-06-22T09:43:12;29.90;87.80
37874;DHT22;23709;48.078;11.684;2023-06-22T09:45:44;30.00;87.80
37874;DHT22;23709;48.078;11.684;2023-06-22T09:48:17;30.10;87.60
37874;DHT22;23709;48.078;11.684;2023-06-22T09:50:49;30.20;84.50
37874;DHT22;23709;48.078;11.684;2023-06-22T09:53:22;30.20;84.70
37874;DHT22;23709;48.078;11.684;2023-06-22T09:55:54;30.20;85.20
37874;DHT22;23709;48.078;11.684;2023-06-22T09:58:27;30.20;83.00
37874;DHT22;23709;48.078;11.684;2023-06-22T10:00:59;30.20;83.20
37874;DHT22;23709;48.078;11.684;2023-06-22T10:03:32;30.30;82.60
37874;DHT22;23709;48.078;11.684;2023-06-22T10:06:05;30.50;83.00
37874;DHT22;23709;48.078;11.684;2023-06-22T10:08:37;30.50;80.70
37874;DHT22;23709;48.078;11.684;2023-06-22T10:11:09;30.40;81.10
37874;DHT22;23709;48.078;11.684;2023-06-22T10:13:42;30.60;80.90
37874;DHT22;23709;48.078;11.684;2023-06-22T10:16:14;30.70;80.60
37874;DHT22;23709;48.078;11.684;2023-06-22T10:18:46;30.80;80.80
37874;DHT22;23709;48.078;11.684;2023-06-22T10:21:18;30.90;79.10
37874;DHT22;23709;48.078;11.684;2023-06-22T10:23:51;31.00;79.40
37874;DHT22;23709;48.078;11.684;2023-06-22T10:26:23;31.10;79.70
37874;DHT22;23709;48.078;11.684;2023-06-22T10:28:55;31.40;78.90
37874;DHT22;23709;48.078;11.684;2023-06-22T10:31:47;31.90;77.50
37874;DHT22;23709;48.078;11.684;2023-06-22T10:34:19;32.30;75.70
37874;DHT22;23709;48.078;11.684;2023-06-22T10:36:51;32.40;76.10
37874;DHT22;23709;48.078;11.684;2023-06-22T10:39:23;32.70;73.90
37874;DHT22;23709;48.078;11.684;2023-06-22T10:41:55;33.00;74.70
37874;DHT22;23709;48.078;11.684;2023-06-22T10:44:28;33.20;74.50
37874;DHT22;23709;48.078;11.684;2023-06-22T10:47:00;33.40;74.10
37874;DHT22;23709;48.078;11.684;2023-06-22T10:49:32;33.70;73.30
37874;DHT22;23709;48.078;11.684;2023-06-22T10:52:07;33.70;71.80
37874;DHT22;23709;48.078;11.684;2023-06-22T10:54:39;33.90;72.30
37874;DHT22;23709;48.078;11.684;2023-06-22T10:57:13;34.10;70.20
37874;DHT22;23709;48.078;11.684;2023-06-22T10:59:45;34.20;70.80
37874;DHT22;23709;48.078;11.684;2023-06-22T11:02:18;34.40;71.10
37874;DHT22;23709;48.078;11.684;2023-06-22T11:04:50;34.50;68.90
37874;DHT22;23709;48.078;11.684;2023-06-22T11:07:22;34.60;68.80
37874;DHT22;23709;48.078;11.684;2023-06-22T11:09:56;34.90;67.90
37874;DHT22;23709;48.078;11.684;2023-06-22T11:12:28;34.90;66.90
37874;DHT22;23709;48.078;11.684;2023-06-22T11:15:01;34.80;66.20
37874;DHT22;23709;48.078;11.684;2023-06-22T11:17:33;34.60;67.00
37874;DHT22;23709;48.078;11.684;2023-06-22T11:20:06;34.70;66.80
37874;DHT22;23709;48.078;11.684;2023-06-22T11:22:43;34.40;66.00
37874;DHT22;23709;48.078;11.684;2023-06-22T11:25:15;34.20;66.80
37874;DHT22;23709;48.078;11.684;2023-06-22T11:27:48;34.10;66.30
37874;DHT22;23709;48.078;11.684;2023-06-22T11:30:20;34.00;66.60
37874;DHT22;23709;48.078;11.684;2023-06-22T11:32:52;34.00;66.80
37874;DHT22;23709;48.078;11.684;2023-06-22T11:35:25;34.00;66.40
37874;DHT22;23709;48.078;11.684;2023-06-22T11:37:57;34.20;66.70
37874;DHT22;23709;48.078;11.684;2023-06-22T11:40:30;34.50;65.90
37874;DHT22;23709;48.078;11.684;2023-06-22T11:43:02;34.80;64.60
37874;DHT22;23709;48.078;11.684;2023-06-22T11:45:34;35.00;64.10
37874;DHT22;23709;48.078;11.684;2023-06-22T11:48:08;35.00;64.50
37874;DHT22;23709;48.078;11.684;2023-06-22T11:50:40;35.40;64.40
37874;DHT22;23709;48.078;11.684;2023-06-22T11:53:12;35.80;62.30
37874;DHT22;23709;48.078;11.684;2023-06-22T11:55:48;35.80;61.80
37874;DHT22;23709;48.078;11.684;2023-06-22T11:58:21;35.80;61.10
37874;DHT22;23709;48.078;11.684;2023-06-22T12:00:54;35.80;61.50
37874;DHT22;23709;48.078;11.684;2023-06-22T12:03:26;35.80;60.20
37874;DHT22;23709;48.078;11.684;2023-06-22T12:05:59;35.90;60.40
37874;DHT22;23709;48.078;11.684;2023-06-22T12:08:32;36.00;59.80
37874;DHT22;23709;48.078;11.684;2023-06-22T12:11:05;36.20;59.10
37874;DHT22;23709;48.078;11.684;2023-06-22T12:13:37;36.50;58.80
37874;DHT22;23709;48.078;11.684;2023-06-22T12:16:09;36.20;57.40
37874;DHT22;23709;48.078;11.684;2023-06-22T12:18:41;35.80;57.80
37874;DHT22;23709;48.078;11.684;2023-06-22T12:21:14;35.70;57.50
37874;DHT22;23709;48.078;11.684;2023-06-22T12:23:46;35.80;57.90
37874;DHT22;23709;48.078;11.684;2023-06-22T12:26:19;35.60;57.40
37874;DHT22;23709;48.078;11.684;2023-06-22T12:28:51;35.40;57.60
37874;DHT22;23709;48.078;11.684;2023-06-22T12:31:23;35.30;57.40
37874;DHT22;23709;48.078;11.684;2023-06-22T12:33:55;35.50;57.80
37874;DHT22;23709;48.078;11.684;2023-06-22T12:36:27;35.80;56.80
37874;DHT22;23709;48.078;11.684;2023-06-22T12:39:00;36.30;55.60
37874;DHT22;23709;48.078;11.684;2023-06-22T12:41:32;36.60;57.10
37874;DHT22;23709;48.078;11.684;2023-06-22T12:44:04;36.70;56.30
37874;DHT22;23709;48.078;11.684;2023-06-22T12:46:36;36.70;55.70
37874;DHT22;23709;48.078;11.684;2023-06-22T12:49:10;36.70;55.40
37874;DHT22;23709;48.078;11.684;2023-06-22T12:51:43;36.80;55.10
37874;DHT22;23709;48.078;11.684;2023-06-22T12:54:16;36.70;55.80
37874;DHT22;23709;48.078;11.684;2023-06-22T12:56:50;37.00;55.50
37874;DHT22;23709;48.078;11.684;2023-06-22T12:59:24;37.20;54.80
37874;DHT22;23709;48.078;11.684;2023-06-22T13:01:57;37.00;54.50
37874;DHT22;23709;48.078;11.684;2023-06-22T13:04:30;37.00;54.50
37874;DHT22;23709;48.078;11.684;2023-06-22T13:07:02;37.30;55.10
37874;DHT22;23709;48.078;11.684;2023-06-22T13:09:49;37.20;55.20
37874;DHT22;23709;48.078;11.684;2023-06-22T13:12:24;37.10;55.80
37874;DHT22;23709;48.078;11.684;2023-06-22T13:14:56;37.10;55.50
37874;DHT22;23709;48.078;11.684;2023-06-22T13:17:28;37.20;55.90
37874;DHT22;23709;48.078;11.684;2023-06-22T13:20:01;37.20;55.00
37874;DHT22;23709;48.078;11.684;2023-06-22T13:22:37;37.30;55.00
37874;DHT22;23709;48.078;11.684;2023-06-22T13:25:12;37.20;55.10
37874;DHT22;23709;48.078;11.684;2023-06-22T13:27:45;37.50;54.20
37874;DHT22;23709;48.078;11.684;2023-06-22T13:30:18;37.40;53.90
37874;DHT22;23709;48.078;11.684;2023-06-22T13:32:50;37.30;53.20
37874;DHT22;23709;48.078;11.684;2023-06-22T13:35:22;37.20;53.70
37874;DHT22;23709;48.078;11.684;2023-06-22T13:37:54;37.30;53.60
37874;DHT22;23709;48.078;11.684;2023-06-22T13:40:27;37.60;53.30
37874;DHT22;23709;48.078;11.684;2023-06-22T13:42:59;37.80;52.80
37874;DHT22;23709;48.078;11.684;2023-06-22T13:45:32;38.20;52.80
37874;DHT22;23709;48.078;11.684;2023-06-22T13:48:05;38.40;51.40
37874;DHT22;23709;48.078;11.684;2023-06-22T13:50:37;37.90;52.20
37874;DHT22;23709;48.078;11.684;2023-06-22T13:53:10;38.00;53.00
37874;DHT22;23709;48.078;11.684;2023-06-22T13:55:42;38.10;52.40
37874;DHT22;23709;48.078;11.684;2023-06-22T13:58:14;38.50;52.70
37874;DHT22;23709;48.078;11.684;2023-06-22T14:00:46;38.70;52.20
37874;DHT22;23709;48.078;11.684;2023-06-22T14:03:20;38.70;51.20
37874;DHT22;23709;48.078;11.684;2023-06-22T14:05:52;38.90;51.60
37874;DHT22;23709;48.078;11.684;2023-06-22T14:08:27;38.60;51.00
37874;DHT22;23709;48.078;11.684;2023-06-22T14:11:13;39.00;51.60
37874;DHT22;23709;48.078;11.684;2023-06-22T14:13:45;38.70;50.80
37874;DHT22;23709;48.078;11.684;2023-06-22T14:16:19;38.70;51.50
37874;DHT22;23709;48.078;11.684;2023-06-22T14:18:51;38.80;51.30
37874;DHT22;23709;48.078;11.684;2023-06-22T14:21:26;38.70;51.00
37874;DHT22;23709;48.078;11.684;2023-06-22T14:23:58;38.80;51.50
37874;DHT22;23709;48.078;11.684;2023-06-22T14:26:30;39.00;51.30
37874;DHT22;23709;48.078;11.684;2023-06-22T14:29:02;39.40;50.20
37874;DHT22;23709;48.078;11.684;2023-06-22T14:31:35;39.40;50.20
37874;DHT22;23709;48.078;11.684;2023-06-22T14:34:08;39.50;50.70
37874;DHT22;23709;48.078;11.684;2023-06-22T14:36:40;39.50;50.20
37874;DHT22;23709;48.078;11.684;2023-06-22T14:39:12;39.50;50.60
37874;DHT22;23709;48.078;11.684;2023-06-22T14:41:45;39.10;50.10
37874;DHT22;23709;48.078;11.684;2023-06-22T14:44:17;38.70;51.20
37874;DHT22;23709;48.078;11.684;2023-06-22T14:46:49;38.60;51.40
37874;DHT22;23709;48.078;11.684;2023-06-22T14:49:21;38.60;52.00
37874;DHT22;23709;48.078;11.684;2023-06-22T14:51:54;38.50;51.20
37874;DHT22;23709;48.078;11.684;2023-06-22T14:54:26;38.70;51.20
37874;DHT22;23709;48.078;11.684;2023-06-22T14:56:59;38.40;51.40
37874;DHT22;23709;48.078;11.684;2023-06-22T14:59:31;38.40;51.50
37874;DHT22;23709;48.078;11.684;2023-06-22T15:02:03;38.40;51.30
37874;DHT22;23709;48.078;11.684;2023-06-22T15:04:35;38.20;51.20
37874;DHT22;23709;48.078;11.684;2023-06-22T15:07:07;38.40;51.50
37874;DHT22;23709;48.078;11.684;2023-06-22T15:09:40;38.60;51.70
37874;DHT22;23709;48.078;11.684;2023-06-22T15:12:14;38.70;51.30
37874;DHT22;23709;48.078;11.684;2023-06-22T15:14:46;38.80;52.20
37874;DHT22;23709;48.078;11.684;2023-06-22T15:17:18;38.80;51.90
37874;DHT22;23709;48.078;11.684;2023-06-22T15:19:50;38.90;52.30
37874;DHT22;23709;48.078;11.684;2023-06-22T15:22:23;38.70;51.90
37874;DHT22;23709;48.078;11.684;2023-06-22T15:24:55;38.80;52.10
37874;DHT22;23709;48.078;11.684;2023-06-22T15:27:33;38.80;52.10
37874;DHT22;23709;48.078;11.684;2023-06-22T15:30:07;38.60;51.50
37874;DHT22;23709;48.078;11.684;2023-06-22T15:32:43;38.60;51.60
37874;DHT22;23709;48.078;11.684;2023-06-22T15:35:16;38.50;51.90
37874;DHT22;23709;48.078;11.684;2023-06-22T15:37:50;38.30;52.00
37874;DHT22;23709;48.078;11.684;2023-06-22T15:40:23;38.20;50.90
37874;DHT22;23709;48.078;11.684;2023-06-22T15:42:55;37.90;51.70
37874;DHT22;23709;48.078;11.684;2023-06-22T15:45:28;37.70;51.40
37874;DHT22;23709;48.078;11.684;2023-06-22T15:48:00;37.80;51.30
37874;DHT22;23709;48.078;11.684;2023-06-22T15:50:32;38.00;50.90
37874;DHT22;23709;48.078;11.684;2023-06-22T15:53:04;37.80;51.60
37874;DHT22;23709;48.078;11.684;2023-06-22T15:55:37;37.70;51.00
37874;DHT22;23709;48.078;11.684;2023-06-22T15:58:09;37.80;51.20
37874;DHT22;23709;48.078;11.684;2023-06-22T16:00:46;37.70;51.30
37874;DHT22;23709;48.078;11.684;2023-06-22T16:03:23;37.80;50.90
37874;DHT22;23709;48.078;11.684;2023-06-22T16:05:56;37.50;51.40
37874;DHT22;23709;48.078;11.684;2023-06-22T16:08:29;37.50;52.00
37874;DHT22;23709;48.078;11.684;2023-06-22T16:11:02;37.70;52.20
37874;DHT22;23709;48.078;11.684;2023-06-22T16:13:35;37.90;51.20
37874;DHT22;23709;48.078;11.684;2023-06-22T16:16:08;37.90;50.30
37874;DHT22;23709;48.078;11.684;2023-06-22T16:18:40;37.70;49.80
37874;DHT22;23709;48.078;11.684;2023-06-22T16:21:14;37.60;50.00
37874;DHT22;23709;48.078;11.684;2023-06-22T16:23:46;37.60;50.10
37874;DHT22;23709;48.078;11.684;2023-06-22T16:26:22;37.40;50.30
37874;DHT22;23709;48.078;11.684;2023-06-22T16:28:54;37.20;51.50
37874;DHT22;23709;48.078;11.684;2023-06-22T16:31:26;36.90;51.40
37874;DHT22;23709;48.078;11.684;2023-06-22T16:33:59;36.60;53.10
37874;DHT22;23709;48.078;11.684;2023-06-22T16:36:32;36.10;54.30
37874;DHT22;23709;48.078;11.684;2023-06-22T16:39:04;35.70;54.50
37874;DHT22;23709;48.078;11.684;2023-06-22T16:44:09;35.20;54.70
37874;DHT22;23709;48.078;11.684;2023-06-22T16:49:16;34.40;56.00
37874;DHT22;23709;48.078;11.684;2023-06-22T16:51:48;33.80;57.90
37874;DHT22;23709;48.078;11.684;2023-06-22T16:54:21;33.50;58.50
37874;DHT22;23709;48.078;11.684;2023-06-22T16:56:54;33.40;59.00
37874;DHT22;23709;48.078;11.684;2023-06-22T16:59:27;33.20;59.80
37874;DHT22;23709;48.078;11.684;2023-06-22T17:01:59;32.90;59.60
37874;DHT22;23709;48.078;11.684;2023-06-22T17:04:33;32.90;60.10
37874;DHT22;23709;48.078;11.684;2023-06-22T17:07:14;32.80;60.20
37874;DHT22;23709;48.078;11.684;2023-06-22T17:09:50;32.60;60.20
37874;DHT22;23709;48.078;11.684;2023-06-22T17:12:22;32.50;61.40
37874;DHT22;23709;48.078;11.684;2023-06-22T17:14:57;32.30;62.50
37874;DHT22;23709;48.078;11.684;2023-06-22T17:17:29;32.00;69.30
37874;DHT22;23709;48.078;11.684;2023-06-22T17:20:02;31.00;76.30
